createdAt,value
2022-09-04T00:00:22.551Z,1.90
2022-09-04T00:03:07.882Z,1.90
2022-09-04T00:05:39.196Z,2.00
2022-09-04T00:08:17.729Z,1.95
2022-09-04T00:10:51.202Z,2.10
2022-09-04T00:13:22.559Z,2.00
2022-09-04T00:15:58.288Z,1.80
2022-09-04T00:18:29.569Z,2.20
2022-09-04T00:21:00.544Z,1.90
2022-09-04T00:23:32.282Z,1.90
2022-09-04T00:26:05.533Z,2.15
2022-09-04T00:28:37.039Z,2.20
2022-09-04T00:31:17.440Z,2.03
2022-09-04T00:33:50.357Z,2.25
2022-09-04T00:36:19.998Z,2.60
2022-09-04T00:38:51.165Z,2.30
2022-09-04T00:41:31.105Z,2.38
2022-09-04T00:44:16.213Z,2.30
2022-09-04T00:46:54.692Z,2.53
2022-09-04T00:49:44.740Z,2.80
2022-09-04T00:52:19.716Z,2.90
2022-09-04T00:54:59.969Z,3.30
2022-09-04T00:57:59.290Z,3.30
2022-09-04T01:00:29.028Z,3.35
2022-09-04T01:03:08.350Z,3.05
2022-09-04T01:05:44.648Z,2.95
2022-09-04T01:08:20.515Z,2.90
2022-09-04T01:10:54.396Z,3.00
2022-09-04T01:13:27.471Z,3.20
2022-09-04T01:15:59.395Z,3.20
2022-09-04T01:18:35.675Z,3.30
2022-09-04T01:21:13.697Z,3.20
2022-09-04T01:24:06.508Z,3.10
2022-09-04T01:26:40.554Z,3.33
2022-09-04T01:29:18.319Z,3.22
2022-09-04T01:31:49.707Z,3.40
2022-09-04T01:34:31.431Z,3.30
2022-09-04T01:37:03.225Z,3.22
2022-09-04T01:39:32.911Z,3.53
2022-09-04T01:42:07.819Z,3.85
2022-09-04T01:44:38.229Z,3.47
2022-09-04T01:47:13.689Z,3.53
2022-09-04T01:49:45.170Z,3.53
2022-09-04T01:52:36.694Z,3.50
2022-09-04T01:55:15.969Z,3.50
2022-09-04T01:57:57.307Z,3.22
2022-09-04T02:00:26.789Z,3.50
2022-09-04T02:03:00.336Z,3.38
2022-09-04T02:05:33.470Z,3.40
2022-09-04T02:08:11.531Z,3.30
2022-09-04T02:10:45.009Z,3.92
2022-09-04T02:13:22.448Z,3.60
2022-09-04T02:15:58.572Z,3.40
2022-09-04T02:18:34.126Z,3.58
2022-09-04T02:21:07.251Z,3.70
2022-09-04T02:23:39.598Z,3.78
2022-09-04T02:26:12.926Z,3.97
2022-09-04T02:28:50.320Z,3.88
2022-09-04T02:31:24.268Z,3.47
2022-09-04T02:33:57.175Z,3.60
2022-09-04T02:36:29.216Z,3.78
2022-09-04T02:39:01.725Z,3.90
2022-09-04T02:41:34.199Z,3.80
2022-09-04T02:44:20.343Z,4.05
2022-09-04T02:46:56.554Z,4.18
2022-09-04T02:49:32.847Z,4.63
2022-09-04T02:52:07.167Z,4.10
2022-09-04T02:54:45.284Z,4.38
2022-09-04T02:57:21.713Z,4.28
2022-09-04T03:00:04.774Z,4.47
2022-09-04T03:02:36.379Z,4.75
2022-09-04T03:05:09.182Z,4.47
2022-09-04T03:07:39.172Z,4.70
2022-09-04T03:10:12.747Z,5.13
2022-09-04T03:12:45.058Z,4.93
2022-09-04T03:15:22.998Z,5.72
2022-09-04T03:17:58.845Z,6.10
2022-09-04T03:20:29.204Z,5.75
2022-09-04T03:23:01.617Z,6.15
2022-09-04T03:26:07.818Z,6.07
2022-09-04T03:28:42.151Z,5.65
2022-09-04T03:31:23.469Z,6.93
2022-09-04T03:33:54.660Z,6.40
2022-09-04T03:38:57.306Z,7.65
2022-09-04T03:41:30.457Z,8.20
2022-09-04T03:44:06.446Z,7.57
2022-09-04T03:46:44.404Z,7.95
2022-09-04T03:49:17.761Z,8.07
2022-09-04T03:51:53.735Z,8.52
2022-09-04T03:54:38.962Z,8.70
2022-09-04T03:57:14.723Z,8.35
2022-09-04T03:59:50.508Z,9.48
2022-09-04T04:02:26.465Z,9.20
2022-09-04T04:05:14.955Z,10.15
2022-09-04T04:07:48.060Z,9.25
2022-09-04T04:10:22.895Z,9.32
2022-09-04T04:13:08.534Z,9.65
2022-09-04T04:15:46.892Z,9.45
2022-09-04T04:18:37.874Z,9.68
2022-09-04T04:21:10.785Z,9.40
2022-09-04T04:23:58.689Z,9.75
2022-09-04T04:26:40.762Z,10.43
2022-09-04T04:29:26.757Z,10.20
2022-09-04T04:32:13.742Z,9.55
2022-09-04T04:34:51.276Z,8.75
2022-09-04T04:37:22.981Z,8.52
2022-09-04T04:39:54.570Z,9.13
2022-09-04T04:42:26.052Z,9.68
2022-09-04T04:45:17.632Z,9.57
2022-09-04T04:48:18.482Z,9.70
2022-09-04T04:50:53.638Z,10.02
2022-09-04T04:53:27.513Z,9.60
2022-09-04T04:55:58.620Z,9.18
2022-09-04T05:01:09.570Z,9.25
2022-09-04T05:03:46.060Z,9.95
2022-09-04T05:06:21.685Z,10.10
2022-09-04T05:08:56.938Z,9.27
2022-09-04T05:11:29.196Z,9.30
2022-09-04T05:14:03.055Z,9.63
2022-09-04T05:16:36.224Z,9.85
2022-09-04T05:19:11.366Z,10.25
2022-09-04T05:21:47.247Z,10.40
2022-09-04T05:24:20.113Z,10.40
2022-09-04T05:26:53.803Z,10.43
2022-09-04T05:29:32.438Z,9.55
2022-09-04T05:32:07.970Z,9.73
2022-09-04T05:34:50.663Z,9.30
2022-09-04T05:37:24.040Z,9.60
2022-09-04T05:39:59.607Z,8.93
2022-09-04T05:42:45.565Z,10.35
2022-09-04T05:45:21.422Z,9.82
2022-09-04T05:47:58.431Z,9.63
2022-09-04T05:50:50.132Z,8.80
2022-09-04T05:53:41.529Z,9.35
2022-09-04T05:56:38.076Z,9.55
2022-09-04T05:59:28.544Z,9.70
2022-09-04T06:02:12.703Z,9.98
2022-09-04T06:05:03.871Z,10.10
2022-09-04T06:07:36.282Z,10.05
2022-09-04T06:10:12.577Z,9.75
2022-09-04T06:13:04.757Z,9.13
2022-09-04T06:15:39.290Z,9.45
2022-09-04T06:18:18.266Z,9.15
2022-09-04T06:20:55.233Z,9.13
2022-09-04T06:23:43.615Z,9.13
2022-09-04T06:26:24.167Z,8.70
2022-09-04T06:29:11.462Z,8.32
2022-09-04T06:32:07.965Z,8.95
2022-09-04T06:34:45.955Z,8.65
2022-09-04T06:37:19.681Z,8.52
2022-09-04T06:39:59.069Z,8.43
2022-09-04T06:42:40.502Z,8.63
2022-09-04T06:45:20.792Z,8.48
2022-09-04T06:47:58.558Z,8.80
2022-09-04T06:50:31.755Z,8.88
2022-09-04T06:53:16.275Z,8.82
2022-09-04T06:55:49.552Z,8.38
2022-09-04T06:58:43.136Z,8.70
2022-09-04T07:01:13.955Z,8.38
2022-09-04T07:03:48.306Z,8.43
2022-09-04T07:06:20.770Z,8.57
2022-09-04T07:08:59.766Z,8.63
2022-09-04T07:11:36.301Z,8.25
2022-09-04T07:14:27.779Z,8.23
2022-09-04T07:17:02.740Z,9.48
2022-09-04T07:19:48.487Z,8.70
2022-09-04T07:22:34.009Z,8.80
2022-09-04T07:25:15.110Z,7.88
2022-09-04T07:30:36.353Z,8.00
2022-09-04T07:33:08.565Z,8.75
2022-09-04T07:35:39.007Z,9.25
2022-09-04T07:38:15.162Z,9.27
2022-09-04T07:40:46.683Z,9.55
2022-09-04T07:43:18.547Z,8.80
2022-09-04T07:45:53.943Z,9.00
2022-09-04T07:48:27.133Z,8.82
2022-09-04T07:51:03.749Z,8.57
2022-09-04T07:53:42.390Z,8.77
2022-09-04T07:56:15.943Z,9.48
2022-09-04T07:58:55.509Z,9.07
2022-09-04T08:01:51.006Z,9.63
2022-09-04T08:04:44.475Z,9.13
2022-09-04T08:07:17.204Z,9.02
2022-09-04T08:10:03.381Z,8.93
2022-09-04T08:13:02.680Z,9.05
2022-09-04T08:15:40.948Z,9.23
2022-09-04T08:18:24.210Z,8.77
2022-09-04T08:20:57.052Z,9.77
2022-09-04T08:23:38.754Z,9.70
2022-09-04T08:26:14.265Z,8.82
2022-09-04T08:28:57.237Z,9.55
2022-09-04T08:31:31.189Z,9.77
2022-09-04T08:34:27.393Z,9.88
2022-09-04T08:36:59.957Z,8.88
2022-09-04T08:39:33.328Z,9.20
2022-09-04T08:42:25.074Z,9.05
2022-09-04T08:45:13.893Z,9.40
2022-09-04T08:47:54.575Z,9.13
2022-09-04T08:50:51.716Z,10.23
2022-09-04T08:53:47.823Z,9.65
2022-09-04T08:56:21.661Z,10.70
2022-09-04T08:59:23.814Z,9.35
2022-09-04T09:02:10.790Z,9.35
2022-09-04T09:05:16.851Z,10.27
2022-09-04T09:08:10.950Z,10.27
2022-09-04T09:10:43.980Z,9.45
2022-09-04T09:13:49.534Z,9.43
2022-09-04T09:16:23.395Z,8.45
2022-09-04T09:19:23.552Z,8.70
2022-09-04T09:22:09.193Z,9.02
2022-09-04T09:25:01.262Z,9.30
2022-09-04T09:28:01.837Z,8.82
2022-09-04T09:30:31.649Z,9.02
2022-09-04T09:33:37.828Z,9.50
2022-09-04T09:36:27.300Z,8.85
2022-09-04T09:39:16.838Z,8.82
2022-09-04T09:42:07.617Z,8.73
2022-09-04T09:44:48.916Z,8.55
2022-09-04T09:47:40.791Z,7.93
2022-09-04T09:50:43.783Z,8.65
2022-09-04T09:53:43.785Z,8.65
2022-09-04T09:56:46.630Z,8.13
2022-09-04T10:00:02.394Z,8.55
2022-09-04T10:02:57.287Z,8.20
2022-09-04T10:05:51.704Z,8.95
2022-09-04T10:08:59.346Z,7.90
2022-09-04T10:11:45.850Z,7.78
2022-09-04T10:14:42.567Z,7.45
2022-09-04T10:17:59.791Z,7.90
2022-09-04T10:20:46.278Z,7.70
2022-09-04T10:23:35.258Z,7.80
2022-09-04T10:26:29.353Z,7.70
2022-09-04T10:29:33.466Z,8.50
2022-09-04T10:32:23.168Z,8.05
2022-09-04T10:35:21.306Z,7.72
2022-09-04T10:38:19.759Z,7.50
2022-09-04T10:41:02.128Z,7.85
2022-09-04T10:43:47.845Z,7.78
2022-09-04T10:46:22.952Z,6.57
2022-09-04T10:49:17.885Z,6.47
2022-09-04T10:52:12.521Z,7.03
2022-09-04T10:55:08.221Z,6.50
2022-09-04T10:58:15.249Z,6.50
2022-09-04T11:00:50.624Z,6.15
2022-09-04T11:03:43.327Z,5.32
2022-09-04T11:06:49.347Z,6.25
2022-09-04T11:09:28.500Z,6.88
2022-09-04T11:12:20.444Z,6.50
2022-09-04T11:15:06.200Z,5.68
2022-09-04T11:17:48.428Z,5.57
2022-09-04T11:20:34.181Z,5.70
2022-09-04T11:23:35.377Z,5.18
2022-09-04T11:28:47.494Z,5.47
2022-09-04T11:31:28.896Z,4.70
2022-09-04T11:34:17.207Z,5.13
2022-09-04T11:37:17.981Z,4.78
2022-09-04T11:40:01.399Z,5.10
2022-09-04T11:42:50.030Z,5.03
2022-09-04T11:45:46.499Z,5.00
2022-09-04T11:48:27.345Z,5.30
2022-09-04T11:51:40.582Z,5.13
2022-09-04T11:54:26.951Z,5.07
2022-09-04T11:57:16.218Z,5.30
2022-09-04T12:00:09.386Z,4.53
2022-09-04T12:03:08.515Z,5.00
2022-09-04T12:05:50.171Z,4.75
2022-09-04T12:08:35.830Z,4.03
2022-09-04T12:11:35.191Z,4.03
2022-09-04T12:14:12.212Z,3.80
2022-09-04T12:16:59.622Z,3.28
2022-09-04T12:19:42.393Z,3.47
2022-09-04T12:22:36.495Z,3.22
2022-09-04T12:25:26.338Z,3.15
2022-09-04T12:28:22.231Z,3.10
2022-09-04T12:30:59.205Z,3.10
2022-09-04T12:33:48.324Z,3.40
2022-09-04T12:36:59.416Z,2.50
2022-09-04T12:42:17.810Z,2.70
2022-09-04T12:44:52.695Z,2.60
2022-09-04T12:47:28.538Z,3.00
2022-09-04T12:50:17.407Z,2.42
2022-09-04T12:52:58.252Z,2.50
2022-09-04T12:58:13.131Z,2.40
2022-09-04T13:00:48.753Z,2.40
2022-09-04T13:03:23.656Z,2.30
2022-09-04T13:06:04.392Z,2.40
2022-09-04T13:08:41.215Z,2.20
2022-09-04T13:11:34.313Z,2.20
2022-09-04T13:14:15.330Z,1.98
2022-09-04T13:16:46.554Z,2.20
2022-09-04T13:19:20.456Z,2.33
2022-09-04T13:22:01.260Z,2.10
2022-09-04T13:27:15.975Z,2.30
2022-09-04T13:30:03.063Z,2.40
2022-09-04T13:33:15.777Z,2.13
2022-09-04T13:36:01.778Z,2.20
2022-09-04T13:39:13.389Z,2.10
2022-09-04T13:41:59.858Z,2.13
2022-09-04T13:44:40.926Z,1.90
2022-09-04T13:47:14.844Z,1.75
2022-09-04T13:49:48.118Z,1.95
2022-09-04T13:52:22.157Z,2.00
2022-09-04T13:54:56.743Z,1.77
2022-09-04T13:57:28.875Z,1.80
2022-09-04T13:59:59.323Z,1.80
2022-09-04T14:02:31.802Z,1.80
2022-09-04T14:05:04.731Z,1.90
2022-09-04T14:07:36.631Z,1.73
2022-09-04T14:10:11.650Z,1.63
2022-09-04T14:12:54.228Z,1.70
2022-09-04T14:15:52.268Z,1.65
2022-09-04T14:18:31.969Z,1.85
2022-09-04T14:21:03.347Z,1.88
2022-09-04T14:23:39.622Z,1.77
2022-09-04T14:26:13.515Z,1.92
2022-09-04T14:28:46.358Z,1.70
2022-09-04T14:31:18.450Z,1.77
2022-09-04T14:33:56.139Z,1.90
2022-09-04T14:36:35.481Z,1.77
2022-09-04T14:39:15.963Z,1.88
2022-09-04T14:41:57.171Z,1.80
2022-09-04T14:44:35.820Z,1.75
2022-09-04T14:47:09.800Z,1.80
2022-09-04T14:49:47.421Z,1.67
2022-09-04T14:52:19.776Z,1.80
2022-09-04T14:54:49.658Z,1.80
2022-09-04T14:57:21.276Z,1.60
2022-09-04T14:59:54.986Z,1.70
2022-09-04T15:02:27.362Z,1.70
2022-09-04T15:05:03.132Z,1.65
2022-09-04T15:07:54.460Z,1.60
2022-09-04T15:10:27.278Z,1.60
2022-09-04T15:13:02.425Z,1.60
2022-09-04T15:15:34.026Z,1.73
2022-09-04T15:18:15.994Z,1.55
2022-09-04T15:20:54.392Z,1.70
2022-09-04T15:23:27.479Z,1.80
2022-09-04T15:25:59.797Z,1.75
2022-09-04T15:28:31.849Z,1.73
2022-09-04T15:31:05.919Z,1.70
2022-09-04T15:33:35.841Z,1.65
2022-09-04T15:36:10.562Z,1.70
2022-09-04T15:38:40.109Z,1.88
2022-09-04T15:41:19.806Z,1.77
2022-09-04T15:43:50.584Z,1.80
2022-09-04T15:46:25.829Z,1.75
2022-09-04T15:48:58.659Z,1.80
2022-09-04T15:51:39.804Z,1.50
2022-09-04T15:54:22.885Z,1.80
2022-09-04T15:57:01.211Z,1.80
2022-09-04T15:59:36.419Z,1.88
2022-09-04T16:02:11.714Z,1.70
2022-09-04T16:04:43.719Z,1.70
2022-09-04T16:07:34.209Z,1.80
2022-09-04T16:10:06.901Z,1.85
2022-09-04T16:12:37.906Z,1.60
2022-09-04T16:15:08.821Z,1.80
2022-09-04T16:17:43.383Z,1.70
2022-09-04T16:20:15.119Z,1.75
2022-09-04T16:22:48.364Z,1.70
2022-09-04T16:25:27.260Z,1.60
2022-09-04T16:27:59.980Z,1.75
2022-09-04T16:30:36.486Z,1.77
2022-09-04T16:33:20.507Z,1.80
2022-09-04T16:35:56.803Z,1.67
2022-09-04T16:38:32.293Z,1.75
2022-09-04T16:41:04.480Z,1.70
2022-09-04T16:43:35.440Z,1.77
2022-09-04T16:46:11.201Z,1.70
2022-09-04T16:48:45.206Z,1.75
2022-09-04T16:51:39.401Z,1.63
2022-09-04T16:54:14.247Z,1.60
2022-09-04T16:56:45.582Z,1.70
2022-09-04T16:59:23.257Z,1.50
2022-09-04T17:01:55.744Z,1.70
2022-09-04T17:04:32.530Z,1.70
2022-09-04T17:07:05.390Z,1.90
2022-09-04T17:09:44.454Z,1.83
2022-09-04T17:12:22.139Z,1.85
2022-09-04T17:14:54.290Z,2.08
2022-09-04T17:17:30.859Z,1.65
2022-09-04T17:20:08.256Z,1.85
2022-09-04T17:27:20.653Z,1.70
2022-09-04T17:29:12.650Z,1.65
2022-09-04T17:29:18.364Z,1.58
2022-09-04T17:31:38.525Z,1.73
2022-09-04T17:40:44.299Z,1.67
2022-09-04T17:40:55.519Z,1.70
2022-09-04T17:40:55.961Z,1.80
2022-09-04T17:43:15.718Z,1.77
2022-09-04T17:45:54.018Z,1.95
2022-09-04T17:48:25.111Z,2.20
2022-09-04T17:50:55.906Z,2.20
2022-09-04T17:56:06.909Z,2.10
2022-09-04T17:58:41.098Z,2.00
2022-09-04T18:01:14.121Z,1.95
2022-09-04T18:04:19.901Z,2.00
2022-09-04T18:06:39.956Z,3.70
2022-09-04T18:09:12.068Z,2.17
2022-09-04T18:11:45.922Z,2.20
2022-09-04T18:14:36.267Z,1.92
2022-09-04T18:17:12.681Z,2.20
2022-09-04T18:19:45.833Z,2.08
2022-09-04T18:22:33.262Z,1.90
2022-09-04T18:25:17.226Z,1.95
2022-09-04T18:28:06.556Z,2.10
2022-09-04T18:33:14.052Z,1.92
2022-09-04T18:37:24.549Z,2.22
2022-09-04T18:37:24.932Z,2.17
2022-09-04T18:39:34.157Z,1.90
2022-09-04T18:50:24.132Z,2.20
2022-09-04T18:50:38.246Z,2.00
2022-09-04T18:50:53.073Z,1.90
2022-09-04T18:51:19.339Z,2.13
2022-09-04T18:53:53.146Z,2.03
2022-09-04T18:56:26.497Z,2.33
2022-09-04T18:59:07.229Z,2.20
2022-09-04T19:01:44.233Z,2.10
2022-09-04T19:04:43.362Z,2.00
2022-09-04T19:07:13.925Z,2.20
2022-09-04T19:10:05.133Z,2.05
2022-09-04T19:12:47.589Z,2.10
2022-09-04T19:15:36.335Z,2.15
2022-09-04T19:18:10.113Z,2.05
2022-09-04T19:20:48.240Z,1.80
2022-09-04T19:23:23.117Z,2.40
2022-09-04T19:25:55.134Z,2.13
2022-09-04T19:28:26.376Z,2.10
2022-09-04T19:30:57.214Z,2.20
2022-09-04T19:36:05.866Z,2.10
2022-09-04T19:45:57.609Z,2.20
2022-09-04T19:46:07.235Z,2.40
2022-09-04T19:47:28.678Z,2.25
2022-09-04T19:52:25.487Z,2.20
2022-09-04T19:55:44.304Z,2.20
2022-09-04T19:58:14.462Z,2.88
2022-09-04T20:00:45.574Z,4.03
2022-09-04T20:03:29.413Z,2.60
2022-09-04T20:06:09.278Z,2.10
2022-09-04T20:08:55.564Z,2.28
2022-09-04T20:11:34.859Z,2.20
2022-09-04T20:14:16.604Z,2.30
2022-09-04T20:16:55.283Z,2.20
2022-09-04T20:19:27.827Z,2.15
2022-09-04T20:22:00.158Z,2.50
2022-09-04T20:24:37.597Z,2.45
2022-09-04T20:27:10.340Z,2.50
2022-09-04T20:29:41.233Z,2.40
2022-09-04T20:34:45.971Z,2.33
2022-09-04T20:37:29.286Z,2.28
2022-09-04T20:40:07.620Z,2.50
2022-09-04T20:42:40.633Z,2.30
2022-09-04T20:50:06.857Z,2.10
2022-09-04T20:52:53.515Z,2.40
2022-09-04T20:52:54.890Z,2.28
2022-09-04T20:53:46.783Z,2.33
2022-09-04T20:57:31.506Z,2.60
2022-09-04T21:03:08.298Z,2.33
2022-09-04T21:03:23.726Z,2.40
2022-09-04T21:05:10.927Z,2.40
2022-09-04T21:07:42.547Z,2.30
2022-09-04T21:10:14.068Z,2.60
2022-09-04T21:12:48.141Z,2.50
2022-09-04T21:15:26.691Z,2.67
2022-09-04T21:18:26.475Z,2.60
2022-09-04T21:21:09.028Z,2.50
2022-09-04T21:24:12.234Z,2.50
2022-09-04T21:27:12.003Z,2.45
2022-09-04T21:29:59.401Z,2.65
2022-09-04T21:32:33.224Z,2.25
2022-09-04T21:35:09.921Z,2.30
2022-09-04T21:37:44.639Z,2.38
2022-09-04T21:40:51.091Z,2.60
2022-09-04T21:43:35.957Z,2.40
2022-09-04T21:46:28.961Z,2.40
2022-09-04T21:49:14.555Z,2.15
2022-09-04T21:52:10.307Z,2.38
2022-09-04T21:57:14.942Z,2.70
2022-09-04T22:02:35.359Z,2.50
2022-09-04T22:02:39.059Z,2.38
2022-09-04T22:04:02.368Z,2.20
2022-09-04T22:09:44.450Z,2.38
2022-09-04T22:13:30.993Z,2.20
2022-09-04T22:13:43.726Z,2.40
2022-09-04T22:15:29.215Z,2.42
2022-09-04T22:18:17.758Z,2.35
2022-09-04T22:21:03.003Z,2.40
2022-09-04T22:23:49.723Z,2.38
2022-09-04T22:26:35.226Z,2.80
2022-09-04T22:29:26.657Z,2.30
2022-09-04T22:32:24.455Z,2.58
2022-09-04T22:35:35.654Z,2.67
2022-09-04T22:38:30.437Z,2.30
2022-09-04T22:41:05.574Z,2.60
2022-09-04T22:43:47.205Z,2.53
2022-09-04T22:46:30.699Z,2.50
2022-09-04T22:49:23.422Z,2.45
2022-09-04T22:52:12.009Z,2.45
2022-09-04T22:54:51.087Z,2.60
2022-09-04T22:57:24.879Z,2.50
2022-09-04T23:00:12.659Z,2.35
2022-09-04T23:03:12.692Z,2.55
2022-09-04T23:06:32.522Z,2.70
2022-09-04T23:13:50.234Z,2.67
2022-09-04T23:15:07.897Z,2.47
2022-09-04T23:19:25.128Z,2.58
2022-09-04T23:26:35.689Z,2.70
2022-09-04T23:26:50.537Z,2.67
2022-09-04T23:27:37.873Z,2.40
2022-09-04T23:30:30.991Z,2.55
2022-09-04T23:33:30.638Z,2.47
2022-09-04T23:36:04.179Z,2.63
2022-09-04T23:38:52.585Z,2.70
2022-09-04T23:41:28.542Z,2.55
2022-09-04T23:44:28.310Z,2.60
2022-09-04T23:47:10.331Z,2.83
2022-09-04T23:50:02.082Z,2.92
2022-09-04T23:52:48.805Z,2.65
2022-09-04T23:55:47.547Z,2.53
2022-09-04T23:58:47.226Z,2.85
